Startpagina
METAR-TAF:

METAR-TAF

Vliegvelden :

Aeropuerto Internacional de Maiquetía Simón Bolívar

Caracas, Venezuela

breedte: 10-36N, lengte: 066-59W, hoogte: 43 m

Actueel weer

Dit bericht is 44 minuten geleden gemaakt, om 13:58 UTC
Wind 6 kt uit het noordnoordoosten
Temperatuur 28°C
Vochtigheid 74%
Druk 1012 hPa
Zicht 10 km of meer
Weinig wolken op 1600 ft

METAR: SVMI 051358Z 02006KT 9999 FEW016 28/23 Q1012

Tijdstip: 10:42 (14:42 UTC)

Verwachting

Dit bericht is 16 uur en het 42 minuten geleden gemaakt, om 22:00 UTC
Verwachting geldig van 05 om 00 UTC tot 06 om 00 UTC
Wind 5 kt uit het oosten
Zicht 10 km of meer
Tijdelijke
van 04 om 00 UTC tot 06 om 04 UTC
Wind 5 kt uit het oosten
Zicht 10 km of meer
Verspreide wolken op 30000 ft

TAF: SVMI 042200Z 0500/0600 09005KT 9999 FEW16 TX30/18Z TN25/08Z TEMPO 0400/0604 09005KT 9999 SCT300

Waarnemingen en weersverwachtingen van meer dan 4000 vliegvelden (METAR en TAF).

De beschikbare stations zijn de gele en rode punten op de kaart.

Ga met uw muis naar het station om de naam te zien.

Klik dan om waarnemingen en weersverwachtingen te zien.

kaart wijzigen: klik op de groene knoppen met een zwart kruis om in te zoomen, op de groene knop met een streepje om uit te zoomen of op de groene pijlen voor aangrenzende kaarten.


METAR-TAF: